Main page
METAR-TAF:

METAR-TAF

Airports :

Port Moresby, Papua New Guinea

Jacksons International Airport

latitude: 09-26S, longitude: 147-13E, elevation: 38 m

Current weather observation

The report was made 43 minutes ago, at 02:00 UTC
Wind 3 kt from variable directions
Temperature 32°C
Humidity 63%
Pressure 1010 hPa
Visibility 10 km or more
Few clouds at a height of 2000 ft
Broken clouds at a height of 30000 ft

METAR: AYPY 300200Z VRB03KT 9999 FEW020 BKN300 32/24 Q1010 RMK/ DEW PT UP BY 2 DEGREES

Time: 12:43 (02:43 UTC)

Forecast

The report was made 4 hours and 35 minutes ago, at 22:08 UTC
Forecast valid from 30 at 00 UTC to 30 at 24 UTC
Wind 3 kt from variable directions
Visibility 10 km or more
Scattered clouds at a height of 1800 ft
From 30 at 0300 UTC
Wind 7 kt from the South
Visibility: 4000 m
Broken clouds at a height of 1800 ft
Broken clouds at a height of 800 ft
light rain showers, heavy rain showers

TAF: AYPY 292208Z 3000/3024 VRB03KT 9999 SCT018 FM300300 18007KT 9999 -SHRA BKN018 INTER 3004/3009 4000 +SHRA BKN008

Weather observations and forecasts of more than 4000 airports (METAR and TAF reports).

The available stations are represented by yellow and red dots on the map.

Hover mouse over dot to see the name of the station.

Then click to see weather observations and forecasts.

To change the map : click on the green buttons with a black cross to zoom in, on the green button with a dash to zoom out, or on the green arrows for adjacent maps.


METAR-TAF: